sensor_id;sensor_type;location;lat;lon;timestamp;P1;durP1;ratioP1;P2;durP2;ratioP2
60464;SDS011;46314;52.392;9.758;2022-08-19T00:01:43;11.55;;;9.02;;
60464;SDS011;46314;52.392;9.758;2022-08-19T00:04:19;9.82;;;8.50;;
60464;SDS011;46314;52.392;9.758;2022-08-19T00:06:48;11.13;;;10.00;;
60464;SDS011;46314;52.392;9.758;2022-08-19T00:09:15;9.13;;;8.25;;
60464;SDS011;46314;52.392;9.758;2022-08-19T00:11:43;10.35;;;8.43;;
60464;SDS011;46314;52.392;9.758;2022-08-19T00:14:12;10.05;;;8.77;;
60464;SDS011;46314;52.392;9.758;2022-08-19T00:16:40;9.98;;;8.60;;
60464;SDS011;46314;52.392;9.758;2022-08-19T00:19:08;8.65;;;7.75;;
60464;SDS011;46314;52.392;9.758;2022-08-19T00:21:35;8.77;;;7.95;;
60464;SDS011;46314;52.392;9.758;2022-08-19T00:24:01;11.95;;;8.43;;
60464;SDS011;46314;52.392;9.758;2022-08-19T00:26:28;10.10;;;8.27;;
60464;SDS011;46314;52.392;9.758;2022-08-19T00:28:54;10.70;;;9.30;;
60464;SDS011;46314;52.392;9.758;2022-08-19T00:31:21;10.98;;;8.85;;
60464;SDS011;46314;52.392;9.758;2022-08-19T00:33:48;8.95;;;8.05;;
60464;SDS011;46314;52.392;9.758;2022-08-19T00:36:14;10.15;;;8.68;;
60464;SDS011;46314;52.392;9.758;2022-08-19T00:38:41;10.95;;;8.27;;
60464;SDS011;46314;52.392;9.758;2022-08-19T00:41:07;9.18;;;8.20;;
60464;SDS011;46314;52.392;9.758;2022-08-19T00:43:34;9.38;;;7.82;;
60464;SDS011;46314;52.392;9.758;2022-08-19T00:46:01;9.90;;;7.85;;
60464;SDS011;46314;52.392;9.758;2022-08-19T00:48:27;11.50;;;8.18;;
60464;SDS011;46314;52.392;9.758;2022-08-19T00:50:53;10.52;;;8.35;;
60464;SDS011;46314;52.392;9.758;2022-08-19T00:53:22;9.57;;;8.10;;
60464;SDS011;46314;52.392;9.758;2022-08-19T00:55:52;10.93;;;8.57;;
60464;SDS011;46314;52.392;9.758;2022-08-19T00:58:22;9.70;;;8.70;;
60464;SDS011;46314;52.392;9.758;2022-08-19T01:00:52;11.27;;;8.85;;
60464;SDS011;46314;52.392;9.758;2022-08-19T01:03:19;11.80;;;9.25;;
60464;SDS011;46314;52.392;9.758;2022-08-19T01:05:46;12.18;;;9.48;;
60464;SDS011;46314;52.392;9.758;2022-08-19T01:08:14;10.38;;;9.27;;
60464;SDS011;46314;52.392;9.758;2022-08-19T01:10:45;11.63;;;9.68;;
60464;SDS011;46314;52.392;9.758;2022-08-19T01:13:15;13.25;;;9.23;;
60464;SDS011;46314;52.392;9.758;2022-08-19T01:15:44;15.02;;;10.20;;
60464;SDS011;46314;52.392;9.758;2022-08-19T01:18:17;10.47;;;7.93;;
60464;SDS011;46314;52.392;9.758;2022-08-19T01:20:44;11.82;;;8.77;;
60464;SDS011;46314;52.392;9.758;2022-08-19T01:23:11;11.88;;;10.32;;
60464;SDS011;46314;52.392;9.758;2022-08-19T01:25:50;10.63;;;9.52;;
60464;SDS011;46314;52.392;9.758;2022-08-19T01:28:22;11.75;;;9.13;;
60464;SDS011;46314;52.392;9.758;2022-08-19T01:31:05;10.43;;;8.90;;
60464;SDS011;46314;52.392;9.758;2022-08-19T01:33:34;13.43;;;9.52;;
60464;SDS011;46314;52.392;9.758;2022-08-19T01:36:05;12.45;;;9.90;;
60464;SDS011;46314;52.392;9.758;2022-08-19T01:38:35;11.23;;;9.80;;
60464;SDS011;46314;52.392;9.758;2022-08-19T01:41:10;12.15;;;9.82;;
60464;SDS011;46314;52.392;9.758;2022-08-19T01:43:37;11.98;;;10.25;;
60464;SDS011;46314;52.392;9.758;2022-08-19T01:46:24;10.85;;;9.75;;
60464;SDS011;46314;52.392;9.758;2022-08-19T01:48:50;15.60;;;11.25;;
60464;SDS011;46314;52.392;9.758;2022-08-19T01:51:17;13.85;;;10.68;;
60464;SDS011;46314;52.392;9.758;2022-08-19T01:53:46;12.48;;;10.13;;
60464;SDS011;46314;52.392;9.758;2022-08-19T01:56:14;12.43;;;10.52;;
60464;SDS011;46314;52.392;9.758;2022-08-19T01:58:43;14.68;;;10.63;;
60464;SDS011;46314;52.392;9.758;2022-08-19T02:01:15;14.88;;;11.07;;
60464;SDS011;46314;52.392;9.758;2022-08-19T02:03:42;12.40;;;9.90;;
60464;SDS011;46314;52.392;9.758;2022-08-19T02:06:09;12.18;;;9.60;;
60464;SDS011;46314;52.392;9.758;2022-08-19T02:08:37;10.38;;;9.13;;
60464;SDS011;46314;52.392;9.758;2022-08-19T02:11:05;12.43;;;10.25;;
60464;SDS011;46314;52.392;9.758;2022-08-19T02:13:32;10.98;;;9.45;;
60464;SDS011;46314;52.392;9.758;2022-08-19T02:16:00;10.38;;;9.15;;
60464;SDS011;46314;52.392;9.758;2022-08-19T02:18:29;14.02;;;9.80;;
60464;SDS011;46314;52.392;9.758;2022-08-19T02:20:56;10.13;;;9.07;;
60464;SDS011;46314;52.392;9.758;2022-08-19T02:23:22;11.65;;;9.73;;
60464;SDS011;46314;52.392;9.758;2022-08-19T02:25:50;11.25;;;9.80;;
60464;SDS011;46314;52.392;9.758;2022-08-19T02:28:17;14.27;;;10.27;;
60464;SDS011;46314;52.392;9.758;2022-08-19T02:30:44;11.80;;;9.40;;
60464;SDS011;46314;52.392;9.758;2022-08-19T02:33:12;10.70;;;9.65;;
60464;SDS011;46314;52.392;9.758;2022-08-19T02:35:41;12.60;;;10.07;;
60464;SDS011;46314;52.392;9.758;2022-08-19T02:38:08;9.82;;;8.85;;
60464;SDS011;46314;52.392;9.758;2022-08-19T02:40:35;12.25;;;9.32;;
60464;SDS011;46314;52.392;9.758;2022-08-19T02:43:02;12.13;;;9.77;;
60464;SDS011;46314;52.392;9.758;2022-08-19T02:45:34;10.00;;;9.00;;
60464;SDS011;46314;52.392;9.758;2022-08-19T02:48:07;12.82;;;9.35;;
60464;SDS011;46314;52.392;9.758;2022-08-19T02:50:47;10.98;;;8.93;;
60464;SDS011;46314;52.392;9.758;2022-08-19T02:53:18;12.32;;;9.80;;
60464;SDS011;46314;52.392;9.758;2022-08-19T02:55:45;9.18;;;8.25;;
60464;SDS011;46314;52.392;9.758;2022-08-19T02:58:13;10.07;;;8.43;;
60464;SDS011;46314;52.392;9.758;2022-08-19T03:00:41;12.85;;;8.45;;
60464;SDS011;46314;52.392;9.758;2022-08-19T03:03:09;13.77;;;9.25;;
60464;SDS011;46314;52.392;9.758;2022-08-19T03:05:36;10.15;;;8.05;;
60464;SDS011;46314;52.392;9.758;2022-08-19T03:08:22;13.45;;;8.73;;
60464;SDS011;46314;52.392;9.758;2022-08-19T03:10:49;10.50;;;8.77;;
60464;SDS011;46314;52.392;9.758;2022-08-19T03:13:16;10.48;;;7.95;;
60464;SDS011;46314;52.392;9.758;2022-08-19T03:15:44;8.88;;;8.05;;
60464;SDS011;46314;52.392;9.758;2022-08-19T03:18:12;9.98;;;7.93;;
60464;SDS011;46314;52.392;9.758;2022-08-19T03:20:41;12.90;;;9.20;;
60464;SDS011;46314;52.392;9.758;2022-08-19T03:23:13;11.77;;;8.50;;
60464;SDS011;46314;52.392;9.758;2022-08-19T03:25:41;10.32;;;8.57;;
60464;SDS011;46314;52.392;9.758;2022-08-19T03:28:10;11.40;;;8.02;;
60464;SDS011;46314;52.392;9.758;2022-08-19T03:30:38;10.68;;;8.65;;
60464;SDS011;46314;52.392;9.758;2022-08-19T03:33:08;9.77;;;7.78;;
60464;SDS011;46314;52.392;9.758;2022-08-19T03:35:43;9.77;;;8.27;;
60464;SDS011;46314;52.392;9.758;2022-08-19T03:38:09;10.00;;;8.48;;
60464;SDS011;46314;52.392;9.758;2022-08-19T03:40:36;11.90;;;8.13;;
60464;SDS011;46314;52.392;9.758;2022-08-19T03:43:03;12.50;;;8.07;;
60464;SDS011;46314;52.392;9.758;2022-08-19T03:45:29;10.73;;;8.38;;
60464;SDS011;46314;52.392;9.758;2022-08-19T03:47:55;10.25;;;8.63;;
60464;SDS011;46314;52.392;9.758;2022-08-19T03:50:22;10.98;;;8.15;;
60464;SDS011;46314;52.392;9.758;2022-08-19T03:52:50;9.43;;;7.95;;
60464;SDS011;46314;52.392;9.758;2022-08-19T03:55:17;9.40;;;7.75;;
60464;SDS011;46314;52.392;9.758;2022-08-19T03:57:44;8.95;;;7.78;;
60464;SDS011;46314;52.392;9.758;2022-08-19T04:00:11;10.30;;;7.78;;
60464;SDS011;46314;52.392;9.758;2022-08-19T04:02:40;10.05;;;8.15;;
60464;SDS011;46314;52.392;9.758;2022-08-19T04:05:07;10.85;;;9.30;;
60464;SDS011;46314;52.392;9.758;2022-08-19T04:07:33;10.60;;;8.57;;
60464;SDS011;46314;52.392;9.758;2022-08-19T04:10:00;10.80;;;8.20;;
60464;SDS011;46314;52.392;9.758;2022-08-19T04:12:26;11.55;;;7.45;;
60464;SDS011;46314;52.392;9.758;2022-08-19T04:14:52;11.35;;;8.05;;
60464;SDS011;46314;52.392;9.758;2022-08-19T04:17:19;9.80;;;8.70;;
60464;SDS011;46314;52.392;9.758;2022-08-19T04:19:45;11.25;;;9.60;;
60464;SDS011;46314;52.392;9.758;2022-08-19T04:22:11;13.57;;;9.70;;
60464;SDS011;46314;52.392;9.758;2022-08-19T04:24:38;10.55;;;8.38;;
60464;SDS011;46314;52.392;9.758;2022-08-19T04:27:04;10.32;;;8.77;;
60464;SDS011;46314;52.392;9.758;2022-08-19T04:29:31;11.27;;;8.98;;
60464;SDS011;46314;52.392;9.758;2022-08-19T04:31:58;9.57;;;8.57;;
60464;SDS011;46314;52.392;9.758;2022-08-19T04:34:33;11.95;;;8.48;;
60464;SDS011;46314;52.392;9.758;2022-08-19T04:37:00;18.15;;;9.05;;
60464;SDS011;46314;52.392;9.758;2022-08-19T04:39:28;12.15;;;8.90;;
60464;SDS011;46314;52.392;9.758;2022-08-19T04:41:56;12.65;;;9.05;;
60464;SDS011;46314;52.392;9.758;2022-08-19T04:44:22;9.50;;;8.50;;
60464;SDS011;46314;52.392;9.758;2022-08-19T04:46:49;8.98;;;7.18;;
60464;SDS011;46314;52.392;9.758;2022-08-19T04:49:18;10.38;;;7.15;;
60464;SDS011;46314;52.392;9.758;2022-08-19T04:51:46;10.88;;;7.75;;
60464;SDS011;46314;52.392;9.758;2022-08-19T04:54:13;11.88;;;8.75;;
60464;SDS011;46314;52.392;9.758;2022-08-19T04:56:58;11.15;;;8.98;;
60464;SDS011;46314;52.392;9.758;2022-08-19T04:59:25;10.27;;;7.55;;
60464;SDS011;46314;52.392;9.758;2022-08-19T05:01:51;9.18;;;8.15;;
60464;SDS011;46314;52.392;9.758;2022-08-19T05:04:18;9.27;;;7.55;;
60464;SDS011;46314;52.392;9.758;2022-08-19T05:06:47;9.95;;;8.95;;
60464;SDS011;46314;52.392;9.758;2022-08-19T05:09:15;11.38;;;9.43;;
60464;SDS011;46314;52.392;9.758;2022-08-19T05:11:42;8.95;;;7.95;;
60464;SDS011;46314;52.392;9.758;2022-08-19T05:14:08;11.75;;;8.48;;
60464;SDS011;46314;52.392;9.758;2022-08-19T05:16:35;12.73;;;9.43;;
60464;SDS011;46314;52.392;9.758;2022-08-19T05:19:01;9.90;;;8.90;;
60464;SDS011;46314;52.392;9.758;2022-08-19T05:21:29;9.43;;;8.43;;
60464;SDS011;46314;52.392;9.758;2022-08-19T05:23:55;8.52;;;7.75;;
60464;SDS011;46314;52.392;9.758;2022-08-19T05:26:23;10.65;;;8.73;;
60464;SDS011;46314;52.392;9.758;2022-08-19T05:28:50;13.20;;;8.93;;
60464;SDS011;46314;52.392;9.758;2022-08-19T05:31:21;12.38;;;8.90;;
60464;SDS011;46314;52.392;9.758;2022-08-19T05:33:47;10.50;;;9.32;;
60464;SDS011;46314;52.392;9.758;2022-08-19T05:36:14;16.42;;;10.10;;
60464;SDS011;46314;52.392;9.758;2022-08-19T05:38:40;10.38;;;8.95;;
60464;SDS011;46314;52.392;9.758;2022-08-19T05:41:07;10.15;;;9.13;;
60464;SDS011;46314;52.392;9.758;2022-08-19T05:43:35;12.80;;;9.30;;
60464;SDS011;46314;52.392;9.758;2022-08-19T05:46:03;11.60;;;10.02;;
60464;SDS011;46314;52.392;9.758;2022-08-19T05:48:33;12.20;;;9.68;;
60464;SDS011;46314;52.392;9.758;2022-08-19T05:51:04;15.77;;;10.23;;
60464;SDS011;46314;52.392;9.758;2022-08-19T05:53:32;13.73;;;11.75;;
60464;SDS011;46314;52.392;9.758;2022-08-19T05:56:03;13.20;;;10.60;;
60464;SDS011;46314;52.392;9.758;2022-08-19T05:58:31;13.43;;;11.83;;
60464;SDS011;46314;52.392;9.758;2022-08-19T06:00:57;12.98;;;11.63;;
60464;SDS011;46314;52.392;9.758;2022-08-19T06:03:24;14.95;;;12.13;;
60464;SDS011;46314;52.392;9.758;2022-08-19T06:05:50;13.90;;;11.85;;
60464;SDS011;46314;52.392;9.758;2022-08-19T06:08:17;14.18;;;12.65;;
60464;SDS011;46314;52.392;9.758;2022-08-19T06:10:44;13.90;;;11.57;;
60464;SDS011;46314;52.392;9.758;2022-08-19T06:13:10;14.55;;;10.07;;
60464;SDS011;46314;52.392;9.758;2022-08-19T06:15:36;34.08;;;14.70;;
60464;SDS011;46314;52.392;9.758;2022-08-19T06:18:03;18.10;;;12.32;;
60464;SDS011;46314;52.392;9.758;2022-08-19T06:20:29;19.15;;;13.00;;
60464;SDS011;46314;52.392;9.758;2022-08-19T06:23:15;15.68;;;14.05;;
60464;SDS011;46314;52.392;9.758;2022-08-19T06:25:42;17.70;;;14.57;;
60464;SDS011;46314;52.392;9.758;2022-08-19T06:28:09;16.80;;;14.10;;
60464;SDS011;46314;52.392;9.758;2022-08-19T06:30:40;18.25;;;14.65;;
60464;SDS011;46314;52.392;9.758;2022-08-19T06:33:07;16.55;;;14.43;;
60464;SDS011;46314;52.392;9.758;2022-08-19T06:35:37;15.52;;;13.13;;
60464;SDS011;46314;52.392;9.758;2022-08-19T06:38:05;17.87;;;14.60;;
60464;SDS011;46314;52.392;9.758;2022-08-19T06:40:32;17.17;;;12.80;;
60464;SDS011;46314;52.392;9.758;2022-08-19T06:42:58;15.10;;;12.07;;
60464;SDS011;46314;52.392;9.758;2022-08-19T06:45:27;15.43;;;12.90;;
60464;SDS011;46314;52.392;9.758;2022-08-19T06:48:01;16.02;;;13.63;;
60464;SDS011;46314;52.392;9.758;2022-08-19T06:50:28;16.45;;;12.05;;
60464;SDS011;46314;52.392;9.758;2022-08-19T06:52:55;19.20;;;12.82;;
60464;SDS011;46314;52.392;9.758;2022-08-19T06:55:21;14.63;;;12.77;;
60464;SDS011;46314;52.392;9.758;2022-08-19T06:57:49;15.52;;;13.52;;
60464;SDS011;46314;52.392;9.758;2022-08-19T07:00:15;18.17;;;12.70;;
60464;SDS011;46314;52.392;9.758;2022-08-19T07:02:42;14.07;;;12.18;;
60464;SDS011;46314;52.392;9.758;2022-08-19T07:05:20;14.95;;;13.18;;
60464;SDS011;46314;52.392;9.758;2022-08-19T07:07:47;12.32;;;11.02;;
60464;SDS011;46314;52.392;9.758;2022-08-19T07:10:16;14.38;;;12.88;;
60464;SDS011;46314;52.392;9.758;2022-08-19T07:12:42;16.23;;;12.32;;
60464;SDS011;46314;52.392;9.758;2022-08-19T07:15:09;14.13;;;12.63;;
60464;SDS011;46314;52.392;9.758;2022-08-19T07:17:36;14.85;;;13.02;;
60464;SDS011;46314;52.392;9.758;2022-08-19T07:20:05;15.50;;;13.00;;
60464;SDS011;46314;52.392;9.758;2022-08-19T07:22:36;16.00;;;13.95;;
60464;SDS011;46314;52.392;9.758;2022-08-19T07:25:03;16.23;;;14.27;;
60464;SDS011;46314;52.392;9.758;2022-08-19T07:27:32;16.98;;;13.32;;
60464;SDS011;46314;52.392;9.758;2022-08-19T07:29:58;16.27;;;14.55;;
60464;SDS011;46314;52.392;9.758;2022-08-19T07:32:25;15.75;;;13.02;;
60464;SDS011;46314;52.392;9.758;2022-08-19T07:34:52;17.42;;;15.02;;
60464;SDS011;46314;52.392;9.758;2022-08-19T07:37:18;17.55;;;15.63;;
60464;SDS011;46314;52.392;9.758;2022-08-19T07:39:44;17.08;;;15.27;;
60464;SDS011;46314;52.392;9.758;2022-08-19T07:42:11;20.73;;;16.35;;
60464;SDS011;46314;52.392;9.758;2022-08-19T07:44:38;20.58;;;18.27;;
60464;SDS011;46314;52.392;9.758;2022-08-19T07:47:06;20.77;;;18.33;;
60464;SDS011;46314;52.392;9.758;2022-08-19T07:49:52;22.80;;;20.42;;
60464;SDS011;46314;52.392;9.758;2022-08-19T07:52:19;20.52;;;18.38;;
60464;SDS011;46314;52.392;9.758;2022-08-19T07:54:45;20.65;;;17.95;;
60464;SDS011;46314;52.392;9.758;2022-08-19T07:57:11;18.83;;;16.80;;
60464;SDS011;46314;52.392;9.758;2022-08-19T07:59:38;19.80;;;17.55;;
60464;SDS011;46314;52.392;9.758;2022-08-19T08:02:04;20.50;;;18.25;;
60464;SDS011;46314;52.392;9.758;2022-08-19T08:04:31;18.95;;;17.00;;
60464;SDS011;46314;52.392;9.758;2022-08-19T08:06:57;20.35;;;16.70;;
60464;SDS011;46314;52.392;9.758;2022-08-19T08:09:25;19.63;;;17.10;;
60464;SDS011;46314;52.392;9.758;2022-08-19T08:11:57;20.67;;;17.67;;
60464;SDS011;46314;52.392;9.758;2022-08-19T08:14:53;17.80;;;14.95;;
60464;SDS011;46314;52.392;9.758;2022-08-19T08:17:22;17.83;;;15.57;;
60464;SDS011;46314;52.392;9.758;2022-08-19T08:20:10;16.65;;;14.95;;
60464;SDS011;46314;52.392;9.758;2022-08-19T08:22:37;17.52;;;14.15;;
60464;SDS011;46314;52.392;9.758;2022-08-19T08:25:15;14.30;;;12.23;;
60464;SDS011;46314;52.392;9.758;2022-08-19T08:27:46;16.42;;;14.63;;
60464;SDS011;46314;52.392;9.758;2022-08-19T08:30:19;14.30;;;12.60;;
60464;SDS011;46314;52.392;9.758;2022-08-19T08:32:49;13.57;;;12.13;;
60464;SDS011;46314;52.392;9.758;2022-08-19T08:35:18;13.73;;;12.30;;
60464;SDS011;46314;52.392;9.758;2022-08-19T08:37:47;14.05;;;12.60;;
60464;SDS011;46314;52.392;9.758;2022-08-19T08:40:30;13.38;;;12.07;;
60464;SDS011;46314;52.392;9.758;2022-08-19T08:43:18;13.50;;;12.23;;
60464;SDS011;46314;52.392;9.758;2022-08-19T08:45:59;13.13;;;11.67;;
60464;SDS011;46314;52.392;9.758;2022-08-19T08:51:12;11.93;;;10.57;;
60464;SDS011;46314;52.392;9.758;2022-08-19T08:53:45;12.57;;;10.23;;
60464;SDS011;46314;52.392;9.758;2022-08-19T08:56:21;10.75;;;9.52;;
60464;SDS011;46314;52.392;9.758;2022-08-19T09:01:25;11.93;;;10.70;;
60464;SDS011;46314;52.392;9.758;2022-08-19T09:03:56;11.38;;;10.27;;
60464;SDS011;46314;52.392;9.758;2022-08-19T09:06:40;9.82;;;8.93;;
60464;SDS011;46314;52.392;9.758;2022-08-19T09:09:17;10.10;;;8.90;;
60464;SDS011;46314;52.392;9.758;2022-08-19T09:17:25;9.40;;;8.50;;
60464;SDS011;46314;52.392;9.758;2022-08-19T09:19:56;10.00;;;9.00;;
60464;SDS011;46314;52.392;9.758;2022-08-19T09:22:35;10.50;;;8.10;;
60464;SDS011;46314;52.392;9.758;2022-08-19T09:25:03;8.85;;;7.95;;
60464;SDS011;46314;52.392;9.758;2022-08-19T09:27:30;9.02;;;8.13;;
60464;SDS011;46314;52.392;9.758;2022-08-19T09:30:11;9.73;;;8.80;;
60464;SDS011;46314;52.392;9.758;2022-08-19T09:32:43;9.02;;;8.23;;
60464;SDS011;46314;52.392;9.758;2022-08-19T09:35:11;10.73;;;8.73;;
60464;SDS011;46314;52.392;9.758;2022-08-19T09:37:39;12.50;;;9.57;;
60464;SDS011;46314;52.392;9.758;2022-08-19T09:40:06;9.50;;;8.60;;
60464;SDS011;46314;52.392;9.758;2022-08-19T09:42:34;9.77;;;8.43;;
60464;SDS011;46314;52.392;9.758;2022-08-19T09:45:01;9.20;;;8.20;;
60464;SDS011;46314;52.392;9.758;2022-08-19T09:47:30;9.30;;;8.40;;
60464;SDS011;46314;52.392;9.758;2022-08-19T09:49:56;9.07;;;8.13;;
60464;SDS011;46314;52.392;9.758;2022-08-19T09:52:23;8.98;;;7.95;;
60464;SDS011;46314;52.392;9.758;2022-08-19T09:54:51;8.00;;;7.28;;
60464;SDS011;46314;52.392;9.758;2022-08-19T09:57:18;8.23;;;7.40;;
60464;SDS011;46314;52.392;9.758;2022-08-19T09:59:45;9.13;;;6.93;;
60464;SDS011;46314;52.392;9.758;2022-08-19T10:02:11;7.95;;;7.15;;
60464;SDS011;46314;52.392;9.758;2022-08-19T10:04:37;8.05;;;7.10;;
60464;SDS011;46314;52.392;9.758;2022-08-19T10:07:05;7.40;;;6.75;;
60464;SDS011;46314;52.392;9.758;2022-08-19T10:09:31;7.20;;;6.53;;
60464;SDS011;46314;52.392;9.758;2022-08-19T10:12:01;8.50;;;7.70;;
60464;SDS011;46314;52.392;9.758;2022-08-19T10:14:29;9.80;;;7.40;;
60464;SDS011;46314;52.392;9.758;2022-08-19T10:16:56;8.95;;;6.80;;
60464;SDS011;46314;52.392;9.758;2022-08-19T10:19:24;8.38;;;6.60;;
60464;SDS011;46314;52.392;9.758;2022-08-19T10:21:52;8.15;;;7.35;;
60464;SDS011;46314;52.392;9.758;2022-08-19T10:24:25;7.80;;;6.93;;
60464;SDS011;46314;52.392;9.758;2022-08-19T10:26:52;7.22;;;6.60;;
60464;SDS011;46314;52.392;9.758;2022-08-19T10:29:25;9.15;;;6.47;;
60464;SDS011;46314;52.392;9.758;2022-08-19T10:31:58;7.75;;;6.70;;
60464;SDS011;46314;52.392;9.758;2022-08-19T10:34:28;7.40;;;6.18;;
60464;SDS011;46314;52.392;9.758;2022-08-19T10:36:56;7.38;;;6.03;;
60464;SDS011;46314;52.392;9.758;2022-08-19T10:39:27;9.93;;;5.70;;
60464;SDS011;46314;52.392;9.758;2022-08-19T10:41:55;6.85;;;6.13;;
60464;SDS011;46314;52.392;9.758;2022-08-19T10:44:22;7.03;;;6.32;;
60464;SDS011;46314;52.392;9.758;2022-08-19T10:46:49;7.05;;;6.32;;
60464;SDS011;46314;52.392;9.758;2022-08-19T10:49:15;7.00;;;5.63;;
60464;SDS011;46314;52.392;9.758;2022-08-19T10:51:42;8.60;;;6.05;;
60464;SDS011;46314;52.392;9.758;2022-08-19T10:54:13;6.82;;;5.45;;
60464;SDS011;46314;52.392;9.758;2022-08-19T10:56:41;8.05;;;5.10;;
60464;SDS011;46314;52.392;9.758;2022-08-19T10:59:07;6.65;;;5.95;;
60464;SDS011;46314;52.392;9.758;2022-08-19T11:01:34;6.13;;;5.50;;
60464;SDS011;46314;52.392;9.758;2022-08-19T11:04:01;5.68;;;5.10;;
60464;SDS011;46314;52.392;9.758;2022-08-19T11:06:30;7.93;;;5.68;;
60464;SDS011;46314;52.392;9.758;2022-08-19T11:08:58;6.60;;;6.00;;
60464;SDS011;46314;52.392;9.758;2022-08-19T11:11:24;5.75;;;5.10;;
60464;SDS011;46314;52.392;9.758;2022-08-19T11:13:50;6.90;;;5.07;;
60464;SDS011;46314;52.392;9.758;2022-08-19T11:16:18;8.43;;;5.20;;
60464;SDS011;46314;52.392;9.758;2022-08-19T11:18:49;6.68;;;4.85;;
60464;SDS011;46314;52.392;9.758;2022-08-19T11:21:24;5.70;;;4.75;;
60464;SDS011;46314;52.392;9.758;2022-08-19T11:23:55;6.05;;;5.03;;
60464;SDS011;46314;52.392;9.758;2022-08-19T11:26:23;5.63;;;4.80;;
60464;SDS011;46314;52.392;9.758;2022-08-19T11:28:49;5.00;;;4.50;;
60464;SDS011;46314;52.392;9.758;2022-08-19T11:31:17;6.38;;;5.18;;
60464;SDS011;46314;52.392;9.758;2022-08-19T11:33:45;5.32;;;4.82;;
60464;SDS011;46314;52.392;9.758;2022-08-19T11:36:13;7.32;;;4.30;;
60464;SDS011;46314;52.392;9.758;2022-08-19T11:38:40;4.38;;;3.97;;
60464;SDS011;46314;52.392;9.758;2022-08-19T11:41:07;4.60;;;4.15;;
60464;SDS011;46314;52.392;9.758;2022-08-19T11:43:34;6.05;;;3.75;;
60464;SDS011;46314;52.392;9.758;2022-08-19T11:46:04;3.97;;;3.67;;
60464;SDS011;46314;52.392;9.758;2022-08-19T11:48:31;4.82;;;4.13;;
60464;SDS011;46314;52.392;9.758;2022-08-19T11:50:58;5.43;;;4.00;;
60464;SDS011;46314;52.392;9.758;2022-08-19T11:53:24;4.97;;;4.40;;
60464;SDS011;46314;52.392;9.758;2022-08-19T11:55:52;4.30;;;3.92;;
60464;SDS011;46314;52.392;9.758;2022-08-19T11:58:19;7.10;;;3.90;;
60464;SDS011;46314;52.392;9.758;2022-08-19T12:00:48;4.50;;;3.90;;
60464;SDS011;46314;52.392;9.758;2022-08-19T12:03:15;6.03;;;5.43;;
60464;SDS011;46314;52.392;9.758;2022-08-19T12:05:41;5.45;;;4.43;;
60464;SDS011;46314;52.392;9.758;2022-08-19T12:08:08;5.35;;;3.90;;
60464;SDS011;46314;52.392;9.758;2022-08-19T12:10:35;4.88;;;4.47;;
60464;SDS011;46314;52.392;9.758;2022-08-19T12:13:02;4.47;;;3.65;;
60464;SDS011;46314;52.392;9.758;2022-08-19T12:15:28;4.03;;;3.70;;
60464;SDS011;46314;52.392;9.758;2022-08-19T12:18:02;4.00;;;3.60;;
60464;SDS011;46314;52.392;9.758;2022-08-19T12:20:30;3.97;;;3.35;;
60464;SDS011;46314;52.392;9.758;2022-08-19T12:23:00;4.03;;;3.30;;
60464;SDS011;46314;52.392;9.758;2022-08-19T12:25:27;4.10;;;3.70;;
60464;SDS011;46314;52.392;9.758;2022-08-19T12:27:53;5.13;;;3.45;;
60464;SDS011;46314;52.392;9.758;2022-08-19T12:30:23;4.55;;;3.72;;
60464;SDS011;46314;52.392;9.758;2022-08-19T12:32:49;3.80;;;3.40;;
60464;SDS011;46314;52.392;9.758;2022-08-19T12:35:16;4.07;;;3.67;;
60464;SDS011;46314;52.392;9.758;2022-08-19T12:37:43;4.10;;;3.72;;
60464;SDS011;46314;52.392;9.758;2022-08-19T12:40:21;4.25;;;3.42;;
60464;SDS011;46314;52.392;9.758;2022-08-19T12:42:48;5.03;;;4.53;;
60464;SDS011;46314;52.392;9.758;2022-08-19T12:45:14;6.22;;;4.32;;
60464;SDS011;46314;52.392;9.758;2022-08-19T12:47:40;5.15;;;3.97;;
60464;SDS011;46314;52.392;9.758;2022-08-19T12:50:20;4.10;;;3.67;;
60464;SDS011;46314;52.392;9.758;2022-08-19T12:52:46;4.50;;;3.95;;
60464;SDS011;46314;52.392;9.758;2022-08-19T12:55:13;4.68;;;3.80;;
60464;SDS011;46314;52.392;9.758;2022-08-19T12:57:40;5.20;;;4.43;;
60464;SDS011;46314;52.392;9.758;2022-08-19T13:00:08;7.25;;;3.72;;
60464;SDS011;46314;52.392;9.758;2022-08-19T13:02:38;5.38;;;3.58;;
60464;SDS011;46314;52.392;9.758;2022-08-19T13:05:09;3.83;;;3.50;;
60464;SDS011;46314;52.392;9.758;2022-08-19T13:07:38;3.30;;;3.00;;
60464;SDS011;46314;52.392;9.758;2022-08-19T13:10:06;3.80;;;2.92;;
60464;SDS011;46314;52.392;9.758;2022-08-19T13:12:35;3.72;;;2.92;;
60464;SDS011;46314;52.392;9.758;2022-08-19T13:15:02;4.13;;;3.00;;
60464;SDS011;46314;52.392;9.758;2022-08-19T13:17:36;6.85;;;3.00;;
60464;SDS011;46314;52.392;9.758;2022-08-19T13:20:04;5.55;;;3.20;;
60464;SDS011;46314;52.392;9.758;2022-08-19T13:22:31;10.48;;;3.40;;
60464;SDS011;46314;52.392;9.758;2022-08-19T13:24:57;10.38;;;3.80;;
60464;SDS011;46314;52.392;9.758;2022-08-19T13:27:24;5.55;;;3.17;;
60464;SDS011;46314;52.392;9.758;2022-08-19T13:29:50;9.95;;;3.67;;
60464;SDS011;46314;52.392;9.758;2022-08-19T13:32:16;8.73;;;3.70;;
60464;SDS011;46314;52.392;9.758;2022-08-19T13:34:43;4.70;;;2.88;;
60464;SDS011;46314;52.392;9.758;2022-08-19T13:37:10;3.67;;;3.30;;
60464;SDS011;46314;52.392;9.758;2022-08-19T13:39:36;3.50;;;3.20;;
60464;SDS011;46314;52.392;9.758;2022-08-19T13:42:03;5.55;;;3.83;;
60464;SDS011;46314;52.392;9.758;2022-08-19T13:44:30;4.63;;;3.00;;
60464;SDS011;46314;52.392;9.758;2022-08-19T13:47:00;4.03;;;2.92;;
60464;SDS011;46314;52.392;9.758;2022-08-19T13:49:28;14.55;;;2.80;;
60464;SDS011;46314;52.392;9.758;2022-08-19T13:51:54;3.67;;;2.88;;
60464;SDS011;46314;52.392;9.758;2022-08-19T13:54:21;3.78;;;2.83;;
60464;SDS011;46314;52.392;9.758;2022-08-19T13:56:47;4.55;;;2.80;;
60464;SDS011;46314;52.392;9.758;2022-08-19T13:59:14;4.07;;;3.20;;
60464;SDS011;46314;52.392;9.758;2022-08-19T14:01:40;3.10;;;2.70;;
60464;SDS011;46314;52.392;9.758;2022-08-19T14:04:07;2.75;;;2.55;;
60464;SDS011;46314;52.392;9.758;2022-08-19T14:06:34;4.63;;;2.50;;
60464;SDS011;46314;52.392;9.758;2022-08-19T14:09:00;4.93;;;2.80;;
60464;SDS011;46314;52.392;9.758;2022-08-19T14:11:27;3.35;;;2.75;;
60464;SDS011;46314;52.392;9.758;2022-08-19T14:13:54;3.50;;;2.97;;
60464;SDS011;46314;52.392;9.758;2022-08-19T14:16:20;6.57;;;2.85;;
60464;SDS011;46314;52.392;9.758;2022-08-19T14:18:46;4.45;;;2.40;;
60464;SDS011;46314;52.392;9.758;2022-08-19T14:21:15;3.80;;;2.88;;
60464;SDS011;46314;52.392;9.758;2022-08-19T14:23:43;3.10;;;2.80;;
60464;SDS011;46314;52.392;9.758;2022-08-19T14:26:10;4.20;;;2.80;;
60464;SDS011;46314;52.392;9.758;2022-08-19T14:28:39;6.05;;;2.58;;
60464;SDS011;46314;52.392;9.758;2022-08-19T14:31:05;5.82;;;2.72;;
60464;SDS011;46314;52.392;9.758;2022-08-19T14:33:32;4.50;;;2.53;;
60464;SDS011;46314;52.392;9.758;2022-08-19T14:35:58;5.95;;;2.80;;
60464;SDS011;46314;52.392;9.758;2022-08-19T14:38:25;3.20;;;2.47;;
60464;SDS011;46314;52.392;9.758;2022-08-19T14:41:09;4.88;;;2.47;;
60464;SDS011;46314;52.392;9.758;2022-08-19T14:43:45;4.13;;;2.35;;
60464;SDS011;46314;52.392;9.758;2022-08-19T14:46:14;5.85;;;2.33;;
60464;SDS011;46314;52.392;9.758;2022-08-19T14:48:43;4.85;;;3.00;;
60464;SDS011;46314;52.392;9.758;2022-08-19T14:51:09;2.75;;;2.30;;
60464;SDS011;46314;52.392;9.758;2022-08-19T14:53:36;5.00;;;2.63;;
60464;SDS011;46314;52.392;9.758;2022-08-19T14:56:06;2.55;;;2.35;;
60464;SDS011;46314;52.392;9.758;2022-08-19T14:58:41;4.15;;;2.95;;